Time;durP1;ratioP1;P1;durP2;ratioP2;P2;SDS_P1;SDS_P2;PMS_P1;PMS_P2;Temp;Humidity;BMP_temperature;BMP_pressure;BME280_temperature;BME280_humidity;BME280_pressure;Samples;Min_cycle;Max_cycle;Signal;HPM_P1;HPM_P2
2023/01/14 00:01:05;;;;;;;7.47;1.40;;;7.80;99.90;;;;;;5092049;28;20028;-72
2023/01/14 00:03:31;;;;;;;9.65;1.45;;;7.70;99.90;;;;;;5095232;28;20102;-74
2023/01/14 00:05:59;;;;;;;14.25;1.90;;;7.80;99.90;;;;;;5094437;28;20521;-74
2023/01/14 00:08:26;;;;;;;8.48;1.65;;;7.80;99.90;;;;;;5096729;28;20027;-70
2023/01/14 00:10:52;;;;;;;10.20;1.30;;;7.80;99.90;;;;;;5101961;28;20038;-71
2023/01/14 00:13:17;;;;;;;9.35;1.23;;;7.70;99.90;;;;;;5094512;28;20028;-71
2023/01/14 00:15:51;;;;;;;5.30;0.95;;;7.80;99.90;;;;;;5093538;28;20031;-71
2023/01/14 00:18:17;;;;;;;14.07;2.03;;;7.80;99.90;;;;;;5107211;28;20096;-71
2023/01/14 00:20:43;;;;;;;7.15;1.27;;;7.70;99.90;;;;;;5114511;28;20026;-71
2023/01/14 00:23:09;;;;;;;10.27;1.70;;;7.70;99.90;;;;;;5097318;28;20019;-71
2023/01/14 00:25:34;;;;;;;11.50;1.48;;;7.70;99.90;;;;;;5096600;28;20525;-71
2023/01/14 00:28:00;;;;;;;8.48;1.35;;;7.70;99.90;;;;;;5097158;28;20028;-71
2023/01/14 00:30:26;;;;;;;9.35;1.13;;;7.70;99.90;;;;;;5097114;28;20035;-72
2023/01/14 00:32:51;;;;;;;9.00;1.60;;;7.70;99.90;;;;;;5113793;28;20036;-71
2023/01/14 00:35:17;;;;;;;4.55;0.98;;;7.70;99.90;;;;;;5096636;28;20038;-71
2023/01/14 00:37:42;;;;;;;8.13;1.33;;;7.70;99.90;;;;;;5114344;28;20031;-71
2023/01/14 00:40:08;;;;;;;7.65;1.08;;;7.70;99.90;;;;;;5115320;28;20034;-71
2023/01/14 00:42:34;;;;;;;8.85;1.23;;;7.70;99.90;;;;;;5096298;28;20027;-71
2023/01/14 00:44:59;;;;;;;6.47;0.90;;;7.70;99.90;;;;;;5097077;28;20464;-71
2023/01/14 00:47:25;;;;;;;9.55;1.45;;;7.70;99.90;;;;;;5114859;28;20019;-71
2023/01/14 00:49:51;;;;;;;6.65;1.17;;;7.70;99.90;;;;;;5096067;28;20481;-71
2023/01/14 00:52:16;;;;;;;7.03;1.23;;;7.70;99.90;;;;;;5096887;28;20416;-71
2023/01/14 00:54:42;;;;;;;6.13;1.65;;;7.60;99.90;;;;;;5114167;28;20372;-71
2023/01/14 00:57:07;;;;;;;8.07;1.08;;;7.70;99.90;;;;;;5096614;28;20028;-71
2023/01/14 00:59:33;;;;;;;7.68;0.98;;;7.60;99.90;;;;;;5095872;28;20055;-71
2023/01/14 01:01:59;;;;;;;4.68;1.10;;;7.60;99.90;;;;;;5115090;28;20034;-71
2023/01/14 01:04:24;;;;;;;8.07;1.10;;;7.50;99.90;;;;;;5096676;28;20023;-70
2023/01/14 01:06:50;;;;;;;6.38;1.13;;;7.50;99.90;;;;;;5113828;28;20022;-71
2023/01/14 01:09:16;;;;;;;6.03;1.15;;;7.50;99.90;;;;;;5114782;28;20023;-71
2023/01/14 01:11:42;;;;;;;4.63;1.05;;;7.40;99.90;;;;;;5114129;28;20127;-71
2023/01/14 01:14:09;;;;;;;5.47;0.83;;;7.40;99.90;;;;;;5096108;28;20044;-71
2023/01/14 01:16:34;;;;;;;5.20;1.30;;;7.40;99.90;;;;;;5113796;28;20054;-71
2023/01/14 01:19:00;;;;;;;8.27;1.07;;;7.30;99.90;;;;;;5114622;28;20469;-71
2023/01/14 01:21:25;;;;;;;5.53;1.17;;;7.30;99.90;;;;;;5114446;28;20520;-71
2023/01/14 01:23:52;;;;;;;8.18;1.20;;;7.30;99.90;;;;;;5113733;28;20016;-71
2023/01/14 01:26:20;;;;;;;6.57;0.93;;;7.30;99.90;;;;;;5114589;28;20072;-71
2023/01/14 01:28:52;;;;;;;7.87;1.00;;;7.30;99.90;;;;;;5113078;28;20227;-71
2023/01/14 01:31:18;;;;;;;4.47;0.95;;;7.30;99.90;;;;;;5095907;28;20042;-71
2023/01/14 01:33:44;;;;;;;6.50;1.02;;;7.30;99.90;;;;;;5095128;28;20515;-71
2023/01/14 01:36:18;;;;;;;7.28;0.90;;;7.30;99.90;;;;;;5095959;28;20055;-71
2023/01/14 01:38:45;;;;;;;7.47;1.20;;;7.30;99.90;;;;;;5095176;28;20070;-71
2023/01/14 01:41:23;;;;;;;4.57;1.00;;;7.30;99.90;;;;;;5114127;28;20461;-71
2023/01/14 01:44:17;;;;;;;5.03;1.00;;;7.30;99.90;;;;;;5095108;28;20028;-71
2023/01/14 01:46:43;;;;;;;6.57;1.23;;;7.30;99.90;;;;;;5044104;28;20028;-71
2023/01/14 01:49:14;;;;;;;7.00;1.03;;;7.20;99.90;;;;;;5095782;28;20035;-71
2023/01/14 01:51:45;;;;;;;5.80;0.90;;;7.30;99.90;;;;;;5094942;28;20051;-71
2023/01/14 01:54:12;;;;;;;8.90;1.33;;;7.20;99.90;;;;;;5095872;28;20070;-71
2023/01/14 01:56:39;;;;;;;3.50;0.95;;;7.20;99.90;;;;;;5094901;28;20252;-71
2023/01/14 01:59:09;;;;;;;4.80;0.80;;;7.20;99.90;;;;;;5095681;28;20038;-70
2023/01/14 02:01:35;;;;;;;4.97;0.90;;;7.20;99.90;;;;;;5094955;28;20035;-74
2023/01/14 02:04:01;;;;;;;7.20;1.63;;;7.20;99.90;;;;;;5113695;28;20139;-71
2023/01/14 02:06:26;;;;;;;6.13;1.17;;;7.20;99.90;;;;;;5095528;28;20472;-71
2023/01/14 02:08:54;;;;;;;5.50;1.37;;;7.20;99.90;;;;;;5113125;28;20149;-71
2023/01/14 02:11:50;;;;;;;9.83;1.20;;;7.20;99.90;;;;;;5095355;28;20031;-71
2023/01/14 02:14:34;;;;;;;4.95;1.05;;;7.20;99.90;;;;;;5095413;28;20081;-71
2023/01/14 02:17:07;;;;;;;12.07;1.40;;;7.20;99.90;;;;;;5094783;28;20016;-71
2023/01/14 02:19:44;;;;;;;5.80;1.10;;;7.20;99.90;;;;;;5095117;28;20076;-73
2023/01/14 02:22:44;;;;;;;8.07;1.27;;;7.20;99.90;;;;;;5095504;28;20039;-72
2023/01/14 02:25:31;;;;;;;6.47;1.10;;;7.20;99.90;;;;;;5113004;28;20024;-71
2023/01/14 02:28:25;;;;;;;9.10;1.17;;;7.20;99.90;;;;;;5094230;28;20067;-71
2023/01/14 02:31:19;;;;;;;6.63;1.10;;;7.20;99.90;;;;;;5094221;28;20030;-72
2023/01/14 02:34:05;;;;;;;8.47;0.97;;;7.20;99.90;;;;;;5094295;28;20032;-72
2023/01/14 02:36:52;;;;;;;10.20;1.40;;;7.20;99.90;;;;;;5094933;28;20019;-71
2023/01/14 02:39:30;;;;;;;4.10;1.07;;;7.20;99.90;;;;;;5094915;28;20027;-71
2023/01/14 02:44:54;;;;;;;6.00;0.83;;;7.30;99.90;;;;;;5112433;28;20030;-72
2023/01/14 02:47:24;;;;;;;7.30;1.15;;;7.30;99.90;;;;;;5094827;28;20026;-71
2023/01/14 02:49:54;;;;;;;4.63;1.00;;;7.30;99.90;;;;;;5093898;28;20024;-71
2023/01/14 02:52:20;;;;;;;4.97;0.98;;;7.30;99.90;;;;;;5112902;28;20051;-71
2023/01/14 02:54:57;;;;;;;3.83;0.93;;;7.30;99.90;;;;;;5093590;28;20038;-72
2023/01/14 02:57:34;;;;;;;8.38;1.17;;;7.30;99.90;;;;;;5112674;28;20127;-71
2023/01/14 03:00:18;;;;;;;13.30;1.70;;;7.30;99.90;;;;;;5093965;28;20051;-72
2023/01/14 03:03:20;;;;;;;5.00;0.85;;;7.20;99.90;;;;;;5093852;28;20033;-71
2023/01/14 03:06:08;;;;;;;6.10;0.90;;;7.30;99.90;;;;;;5009381;28;20074;-71
2023/01/14 03:08:47;;;;;;;8.40;1.00;;;7.30;99.90;;;;;;5112498;28;20383;-71
2023/01/14 03:11:13;;;;;;;4.00;0.90;;;7.30;99.90;;;;;;5094387;28;20471;-71
2023/01/14 03:14:02;;;;;;;10.87;0.83;;;7.30;99.90;;;;;;5093934;28;20028;-73
2023/01/14 03:16:41;;;;;;;6.93;0.60;;;7.40;99.90;;;;;;5112644;28;20461;-71
2023/01/14 03:19:20;;;;;;;6.73;1.23;;;7.40;99.90;;;;;;5094453;28;20128;-71
2023/01/14 03:21:52;;;;;;;4.83;0.73;;;7.40;99.90;;;;;;5093766;28;20039;-71
2023/01/14 03:24:43;;;;;;;7.70;1.07;;;7.50;99.90;;;;;;5112540;28;20019;-71
2023/01/14 03:27:13;;;;;;;4.93;1.03;;;7.50;99.90;;;;;;5094359;28;20061;-71
2023/01/14 03:29:44;;;;;;;6.30;0.90;;;7.50;99.90;;;;;;5112207;28;20384;-74
2023/01/14 03:32:20;;;;;;;7.20;1.07;;;7.50;99.90;;;;;;5112501;28;20031;-71
2023/01/14 03:34:50;;;;;;;6.97;0.80;;;7.50;99.90;;;;;;5093613;28;20042;-71
2023/01/14 03:37:20;;;;;;;2.28;0.70;;;7.50;99.90;;;;;;5097606;28;20023;-71
2023/01/14 03:39:48;;;;;;;3.92;0.85;;;7.50;99.90;;;;;;5115864;28;20024;-72
2023/01/14 03:42:18;;;;;;;3.95;0.90;;;7.50;99.90;;;;;;5098146;28;20081;-71
2023/01/14 03:45:08;;;;;;;7.07;0.68;;;7.50;99.90;;;;;;5097370;28;20024;-72
2023/01/14 03:47:35;;;;;;;4.72;0.60;;;7.50;99.90;;;;;;5098251;28;20023;-71
2023/01/14 03:50:12;;;;;;;7.73;0.93;;;7.50;99.90;;;;;;5097389;28;20034;-71
2023/01/14 03:53:09;;;;;;;5.85;0.73;;;7.50;99.90;;;;;;5097812;28;20564;-74
2023/01/14 03:55:46;;;;;;;7.65;0.95;;;7.50;99.90;;;;;;5098052;28;20031;-71
2023/01/14 03:58:17;;;;;;;6.55;0.75;;;7.50;99.90;;;;;;5097586;28;20088;-71
2023/01/14 04:00:53;;;;;;;4.85;0.50;;;7.50;99.90;;;;;;5115799;28;20050;-72
2023/01/14 04:03:20;;;;;;;6.93;0.98;;;7.50;99.90;;;;;;5097923;28;20536;-71
2023/01/14 04:05:46;;;;;;;8.95;0.88;;;7.60;99.90;;;;;;5097050;28;20030;-71
2023/01/14 04:08:11;;;;;;;2.75;0.65;;;7.60;99.90;;;;;;5097818;28;20112;-71
2023/01/14 04:10:37;;;;;;;4.87;0.90;;;7.60;99.90;;;;;;5115724;28;20168;-71
2023/01/14 04:15:46;;;;;;;5.60;0.98;;;7.60;99.90;;;;;;5115122;28;20495;-72
2023/01/14 04:18:12;;;;;;;7.50;0.77;;;7.60;99.90;;;;;;5097010;28;20040;-71
2023/01/14 04:20:38;;;;;;;7.97;1.20;;;7.60;99.90;;;;;;5097478;28;20019;-71
2023/01/14 04:23:03;;;;;;;4.20;0.65;;;7.60;99.90;;;;;;5096761;28;20473;-71
2023/01/14 04:25:29;;;;;;;6.35;0.93;;;7.60;99.90;;;;;;5097445;28;20027;-71
2023/01/14 04:27:54;;;;;;;6.38;0.90;;;7.60;99.90;;;;;;5096659;28;20032;-71
2023/01/14 04:30:20;;;;;;;2.75;0.50;;;7.60;99.90;;;;;;5115555;28;20426;-71
2023/01/14 04:32:46;;;;;;;7.05;1.02;;;7.60;99.90;;;;;;5096543;28;20041;-72
2023/01/14 04:35:11;;;;;;;1.67;0.65;;;7.70;99.90;;;;;;5115745;28;20461;-71
2023/01/14 04:37:37;;;;;;;6.95;0.70;;;7.70;99.90;;;;;;5097029;28;20027;-71
2023/01/14 04:40:04;;;;;;;2.45;0.45;;;7.70;99.90;;;;;;5114686;28;20028;-71
2023/01/14 04:42:31;;;;;;;3.80;0.82;;;7.70;99.90;;;;;;5115437;28;20488;-71
2023/01/14 04:44:59;;;;;;;5.07;0.90;;;7.70;99.90;;;;;;5114794;28;20024;-71
2023/01/14 04:47:25;;;;;;;8.35;0.88;;;7.70;99.90;;;;;;5096537;28;20525;-71
2023/01/14 04:49:51;;;;;;;6.95;0.90;;;7.70;99.90;;;;;;5096195;28;20028;-71
2023/01/14 04:52:17;;;;;;;7.53;1.00;;;7.70;99.90;;;;;;5097012;28;20354;-71
2023/01/14 04:54:43;;;;;;;4.03;0.88;;;7.70;99.90;;;;;;5115011;28;20354;-73
2023/01/14 04:57:09;;;;;;;6.25;0.90;;;7.80;99.90;;;;;;5096484;28;20028;-71
2023/01/14 04:59:34;;;;;;;5.18;0.85;;;7.80;99.90;;;;;;5096790;28;20527;-71
2023/01/14 05:02:00;;;;;;;5.10;0.70;;;7.80;99.90;;;;;;5096145;28;20161;-71
2023/01/14 05:04:26;;;;;;;3.20;0.70;;;7.80;99.90;;;;;;5096425;28;20051;-71
2023/01/14 05:06:53;;;;;;;4.70;0.70;;;7.70;99.90;;;;;;5114145;28;20039;-71
2023/01/14 05:09:18;;;;;;;3.58;1.33;;;7.80;99.90;;;;;;5114885;28;20030;-71
2023/01/14 05:11:44;;;;;;;4.43;0.80;;;7.80;99.90;;;;;;5096186;28;20106;-74
2023/01/14 05:14:09;;;;;;;3.38;0.80;;;7.70;99.90;;;;;;5096087;28;20024;-71
2023/01/14 05:16:35;;;;;;;7.82;1.20;;;7.70;99.90;;;;;;5096475;28;20381;-71
2023/01/14 05:19:01;;;;;;;2.72;0.80;;;7.70;99.90;;;;;;5091672;28;20052;-72
2023/01/14 05:21:26;;;;;;;6.80;0.73;;;7.70;99.90;;;;;;5092661;28;20036;-71
2023/01/14 05:23:52;;;;;;;4.53;0.85;;;7.60;99.90;;;;;;5091957;28;20027;-71
2023/01/14 05:26:18;;;;;;;3.83;0.83;;;7.60;99.90;;;;;;5092865;28;20115;-71
2023/01/14 05:28:43;;;;;;;7.77;1.27;;;7.60;99.90;;;;;;5092409;28;20101;-74
2023/01/14 05:31:09;;;;;;;5.20;0.97;;;7.60;99.90;;;;;;5093414;28;20024;-71
2023/01/14 05:33:34;;;;;;;6.97;1.13;;;7.60;99.90;;;;;;5092764;28;20028;-71
2023/01/14 05:36:00;;;;;;;6.10;1.35;;;7.60;99.90;;;;;;5093046;28;20434;-71
2023/01/14 05:38:27;;;;;;;4.80;1.00;;;7.50;99.90;;;;;;5092686;28;20476;-71
2023/01/14 05:40:53;;;;;;;9.00;1.08;;;7.50;99.90;;;;;;5091682;28;20484;-71
2023/01/14 05:46:08;;;;;;;11.13;1.23;;;7.50;99.90;;;;;;5093098;28;20084;-71
2023/01/14 05:48:34;;;;;;;11.50;1.43;;;7.50;99.90;;;;;;5092262;28;20028;-71
2023/01/14 05:51:02;;;;;;;10.25;1.20;;;7.50;99.90;;;;;;5091298;28;20031;-71
2023/01/14 05:53:28;;;;;;;5.60;1.35;;;7.40;99.90;;;;;;5092187;28;20024;-71
2023/01/14 05:55:56;;;;;;;7.97;1.15;;;7.40;99.90;;;;;;5091460;28;20067;-72
2023/01/14 05:58:21;;;;;;;6.78;1.20;;;7.50;99.90;;;;;;5092475;28;20051;-71
2023/01/14 06:06:21;;;;;;;6.75;1.33;;;7.50;99.90;;;;;;5093432;28;20081;-71
2023/01/14 06:08:47;;;;;;;9.65;1.38;;;7.40;99.90;;;;;;5093195;28;20024;-76
2023/01/14 06:11:12;;;;;;;9.30;1.30;;;7.40;99.90;;;;;;5091418;28;20028;-71
2023/01/14 06:13:38;;;;;;;7.35;1.20;;;7.40;99.90;;;;;;5093103;28;20028;-71
2023/01/14 06:16:07;;;;;;;13.07;1.80;;;7.40;99.90;;;;;;5090987;28;20121;-71
2023/01/14 06:18:41;;;;;;;9.07;1.35;;;7.40;99.90;;;;;;5108551;28;20044;-71
2023/01/14 06:21:26;;;;;;;7.55;1.20;;;7.40;99.90;;;;;;5094480;28;20110;-71
2023/01/14 06:23:53;;;;;;;5.10;1.20;;;7.40;99.90;;;;;;5112726;28;20020;-72
2023/01/14 06:26:20;;;;;;;6.57;1.17;;;7.50;99.90;;;;;;5095002;28;20421;-71
2023/01/14 06:28:46;;;;;;;7.60;1.40;;;7.50;99.90;;;;;;5113559;28;20074;-71
2023/01/14 06:31:14;;;;;;;8.13;1.10;;;7.50;99.90;;;;;;5112490;28;20067;-71
2023/01/14 06:33:41;;;;;;;8.75;1.45;;;7.50;99.90;;;;;;5112937;28;20035;-71
2023/01/14 06:36:08;;;;;;;11.85;1.20;;;7.60;99.90;;;;;;5094183;28;20030;-71
2023/01/14 06:38:34;;;;;;;9.07;1.70;;;7.60;99.90;;;;;;5113162;28;20023;-71
2023/01/14 06:41:01;;;;;;;7.57;1.33;;;7.60;99.90;;;;;;5112350;28;20092;-73
2023/01/14 06:43:27;;;;;;;5.78;1.23;;;7.60;99.90;;;;;;5094825;28;20070;-71
2023/01/14 06:45:54;;;;;;;10.77;1.60;;;7.60;99.90;;;;;;5093942;28;20062;-71
2023/01/14 06:48:20;;;;;;;10.50;1.48;;;7.60;99.90;;;;;;5112649;28;20529;-71
2023/01/14 06:50:45;;;;;;;7.82;1.33;;;7.70;99.90;;;;;;5094662;28;20024;-71
2023/01/14 06:53:11;;;;;;;7.00;1.10;;;7.70;99.90;;;;;;5111723;28;20110;-72
2023/01/14 06:55:36;;;;;;;8.30;1.42;;;7.70;99.90;;;;;;5094621;28;20031;-71
2023/01/14 06:58:02;;;;;;;12.32;1.52;;;7.70;99.90;;;;;;5093704;28;20358;-71
2023/01/14 07:00:28;;;;;;;6.95;1.42;;;7.70;99.90;;;;;;5112699;28;20040;-71
2023/01/14 07:02:54;;;;;;;9.30;1.25;;;7.70;99.90;;;;;;5093830;28;20024;-72
2023/01/14 07:05:20;;;;;;;9.80;1.17;;;7.80;99.90;;;;;;5094218;28;20020;-71
2023/01/14 07:07:47;;;;;;;8.25;1.08;;;7.80;99.90;;;;;;5094603;28;20024;-71
2023/01/14 07:10:12;;;;;;;11.88;1.27;;;7.80;99.90;;;;;;5111825;28;20020;-71
2023/01/14 07:12:38;;;;;;;7.68;1.35;;;7.90;99.90;;;;;;5094299;28;20040;-71
2023/01/14 07:15:04;;;;;;;8.48;1.45;;;7.80;99.90;;;;;;5111991;28;20038;-71
2023/01/14 07:17:29;;;;;;;10.48;1.90;;;7.90;99.90;;;;;;5090702;28;20048;-71
2023/01/14 07:19:55;;;;;;;9.05;1.75;;;7.90;99.90;;;;;;5090296;28;20016;-72
2023/01/14 07:22:21;;;;;;;11.25;1.27;;;7.90;99.90;;;;;;5091031;28;20123;-71
2023/01/14 07:24:46;;;;;;;7.20;1.13;;;7.90;99.90;;;;;;5090957;28;20528;-71
2023/01/14 07:27:12;;;;;;;8.20;1.00;;;7.90;99.90;;;;;;5090056;28;20020;-71
2023/01/14 07:29:37;;;;;;;5.93;1.02;;;8.00;99.90;;;;;;5092312;28;20398;-73
2023/01/14 07:32:03;;;;;;;10.05;1.77;;;8.00;99.90;;;;;;5091073;28;20055;-73
2023/01/14 07:34:28;;;;;;;8.23;1.10;;;8.00;99.90;;;;;;5092157;28;20031;-71
2023/01/14 07:36:54;;;;;;;5.05;1.20;;;8.00;99.90;;;;;;5091326;28;20099;-74
2023/01/14 07:39:20;;;;;;;10.80;1.02;;;8.10;99.90;;;;;;5090684;28;20024;-72
2023/01/14 07:41:45;;;;;;;2.92;1.00;;;8.10;99.90;;;;;;5092163;28;20036;-71
2023/01/14 07:44:11;;;;;;;5.07;1.00;;;8.10;99.90;;;;;;5090039;28;20032;-71
2023/01/14 07:46:36;;;;;;;9.90;1.20;;;8.10;99.90;;;;;;5092302;28;20362;-71
2023/01/14 07:49:02;;;;;;;5.90;0.95;;;8.10;99.90;;;;;;5078879;28;21337;-72
2023/01/14 07:51:28;;;;;;;6.03;0.80;;;8.20;99.90;;;;;;5090698;28;20032;-71
2023/01/14 07:53:53;;;;;;;8.88;1.25;;;8.20;99.90;;;;;;5091202;28;20049;-73
2023/01/14 07:56:19;;;;;;;9.57;1.45;;;8.20;99.90;;;;;;5089513;28;20481;-72
2023/01/14 07:58:47;;;;;;;8.25;1.23;;;8.30;99.90;;;;;;5089872;28;20024;-71
2023/01/14 08:01:13;;;;;;;8.63;1.33;;;8.30;99.90;;;;;;5089226;28;20028;-71
2023/01/14 08:03:38;;;;;;;6.75;0.73;;;8.30;99.90;;;;;;5090114;28;20126;-71
2023/01/14 08:06:05;;;;;;;3.92;0.98;;;8.30;99.90;;;;;;5089402;28;20477;-72
2023/01/14 08:08:30;;;;;;;8.25;0.98;;;8.30;99.90;;;;;;5090264;28;20028;-73
2023/01/14 08:11:02;;;;;;;4.30;0.95;;;8.40;99.90;;;;;;5090712;28;20071;-76
2023/01/14 08:13:28;;;;;;;;;;;8.40;99.90;;;;;;5090428;28;20038;-71
2023/01/14 08:15:59;;;;;;;4.97;0.60;;;8.40;99.90;;;;;;5072752;28;20386;-74
2023/01/14 08:18:24;;;;;;;7.18;0.85;;;8.40;99.90;;;;;;5092546;28;20142;-71
2023/01/14 08:21:02;;;;;;;5.40;0.90;;;8.40;99.90;;;;;;5092568;28;20042;-71
2023/01/14 08:23:28;;;;;;;5.70;0.88;;;8.50;99.90;;;;;;5093930;28;20024;-71
2023/01/14 08:25:54;;;;;;;7.78;1.08;;;8.50;99.90;;;;;;5079788;28;20077;-72
2023/01/14 08:28:20;;;;;;;6.10;0.80;;;8.60;99.90;;;;;;5113669;28;20028;-72
2023/01/14 08:30:45;;;;;;;11.57;1.00;;;8.60;99.90;;;;;;5102934;28;20036;-71
2023/01/14 08:33:11;;;;;;;7.22;0.82;;;8.60;99.90;;;;;;5107012;28;20038;-71
2023/01/14 08:35:40;;;;;;;7.47;1.02;;;8.70;99.90;;;;;;5096613;28;20423;-71
2023/01/14 08:38:06;;;;;;;3.47;0.88;;;8.70;99.90;;;;;;5107922;28;20016;-71
2023/01/14 08:40:32;;;;;;;4.38;0.70;;;8.70;99.90;;;;;;5103312;28;20069;-71
2023/01/14 08:42:58;;;;;;;3.00;0.68;;;8.70;99.90;;;;;;5100355;28;20398;-72
2023/01/14 08:45:24;;;;;;;5.03;0.90;;;8.80;99.90;;;;;;5093353;28;20024;-71
2023/01/14 08:47:49;;;;;;;5.15;0.70;;;8.80;99.90;;;;;;5110152;28;20027;-71
2023/01/14 08:50:15;;;;;;;4.00;0.90;;;8.80;99.90;;;;;;5087042;28;20488;-71
2023/01/14 08:52:41;;;;;;;4.35;0.73;;;8.90;99.90;;;;;;5103128;28;20088;-71
2023/01/14 08:55:07;;;;;;;3.70;0.80;;;8.90;99.90;;;;;;5113846;28;20035;-73
2023/01/14 08:57:33;;;;;;;5.55;0.50;;;9.00;99.90;;;;;;5114251;28;20027;-71
2023/01/14 08:59:58;;;;;;;3.53;0.77;;;9.00;99.90;;;;;;5095419;28;20081;-71
2023/01/14 09:02:24;;;;;;;3.72;0.60;;;9.10;99.90;;;;;;5105043;28;20511;-71
2023/01/14 09:04:49;;;;;;;4.72;1.50;;;9.10;99.90;;;;;;5104111;28;20031;-71
2023/01/14 09:18:11;;;;;;;4.80;0.90;;;9.10;99.90;;;;;;5087274;28;20650;-71
2023/01/14 09:20:39;;;;;;;2.83;0.80;;;9.20;99.90;;;;;;5085309;28;20115;-71
2023/01/14 09:23:08;;;;;;;8.52;0.90;;;9.10;99.90;;;;;;5095178;28;20023;-71
2023/01/14 09:25:33;;;;;;;3.90;1.15;;;9.20;99.90;;;;;;5113732;28;20023;-71
2023/01/14 09:27:59;;;;;;;5.15;0.80;;;9.20;99.90;;;;;;5113140;28;20057;-71
2023/01/14 09:30:26;;;;;;;3.40;0.77;;;9.20;99.90;;;;;;5114252;28;20431;-70
2023/01/14 09:32:51;;;;;;;2.08;0.52;;;9.20;99.90;;;;;;5095170;28;20031;-71
2023/01/14 09:35:17;;;;;;;5.97;0.63;;;9.20;99.90;;;;;;5112154;28;20497;-71
2023/01/14 09:37:43;;;;;;;1.77;0.68;;;9.30;99.90;;;;;;5095675;28;20024;-71
2023/01/14 09:40:09;;;;;;;3.15;0.88;;;9.30;99.90;;;;;;5113255;28;20027;-72
2023/01/14 09:42:40;;;;;;;1.48;0.47;;;9.30;99.90;;;;;;5095445;28;20027;-71
2023/01/14 09:45:26;;;;;;;3.38;0.50;;;9.30;99.90;;;;;;5112529;28;20034;-72
2023/01/14 09:47:54;;;;;;;3.03;0.55;;;9.40;99.90;;;;;;5094480;28;20119;-71
2023/01/14 09:50:55;;;;;;;3.80;0.95;;;9.40;99.90;;;;;;5074826;28;20434;-71
2023/01/14 09:53:56;;;;;;;2.85;0.77;;;9.40;99.90;;;;;;5089393;28;20114;-70
2023/01/14 09:56:43;;;;;;;3.70;0.43;;;9.50;99.90;;;;;;5099722;28;20028;-71
2023/01/14 09:59:33;;;;;;;3.90;0.60;;;9.50;99.90;;;;;;5094428;28;20027;-71
2023/01/14 10:02:08;;;;;;;2.83;0.63;;;9.50;99.90;;;;;;5078649;28;20051;-73
2023/01/14 10:04:37;;;;;;;6.50;0.80;;;9.50;99.90;;;;;;5113136;28;20073;-71
2023/01/14 10:07:03;;;;;;;4.57;0.98;;;9.60;99.90;;;;;;5111491;28;20080;-71
2023/01/14 10:09:52;;;;;;;1.27;0.40;;;9.60;99.90;;;;;;5094774;28;20100;-71
2023/01/14 10:12:41;;;;;;;3.63;0.60;;;9.60;99.90;;;;;;5094051;28;20043;-71
2023/01/14 10:15:18;;;;;;;2.65;0.82;;;9.70;99.90;;;;;;5111232;28;20049;-71
2023/01/14 10:18:11;;;;;;;3.38;0.63;;;9.70;99.90;;;;;;5094474;28;20115;-70
2023/01/14 10:20:52;;;;;;;1.92;0.70;;;9.80;99.90;;;;;;5065093;28;20042;-71
2023/01/14 10:23:24;;;;;;;3.13;0.60;;;9.80;99.90;;;;;;5093878;28;20050;-71
2023/01/14 10:25:52;;;;;;;1.40;0.47;;;9.80;99.90;;;;;;5112674;28;20026;-71
2023/01/14 10:28:21;;;;;;;5.80;0.60;;;9.80;99.90;;;;;;5093855;28;20242;-72
2023/01/14 10:30:49;;;;;;;3.53;0.60;;;9.80;99.90;;;;;;5094582;28;20096;-71
2023/01/14 10:33:16;;;;;;;2.00;0.43;;;9.80;99.90;;;;;;5093948;28;20094;-71
2023/01/14 10:35:45;;;;;;;3.67;0.40;;;9.80;99.90;;;;;;5112238;28;20034;-71
2023/01/14 10:38:23;;;;;;;3.50;0.45;;;9.80;99.90;;;;;;5093538;28;20015;-71
2023/01/14 10:40:51;;;;;;;1.05;0.40;;;9.90;99.90;;;;;;5094596;28;20027;-70
2023/01/14 10:43:31;;;;;;;2.13;0.40;;;9.90;99.90;;;;;;5093659;28;20027;-71
2023/01/14 10:45:57;;;;;;;1.45;0.30;;;9.90;99.90;;;;;;5077320;28;20027;-71
2023/01/14 10:48:25;;;;;;;4.05;1.30;;;9.90;99.90;;;;;;5090347;28;20038;-71
2023/01/14 10:50:51;;;;;;;1.45;0.43;;;10.00;99.90;;;;;;5103704;28;20046;-71
2023/01/14 10:53:22;;;;;;;3.53;0.50;;;10.00;99.90;;;;;;5093433;28;20135;-71
2023/01/14 10:56:00;;;;;;;1.10;0.47;;;10.00;99.90;;;;;;5112025;28;20068;-71
2023/01/14 10:58:45;;;;;;;2.75;0.47;;;10.00;99.90;;;;;;5093875;28;20499;-71
2023/01/14 11:01:12;;;;;;;2.97;0.40;;;10.10;99.90;;;;;;5111647;28;20028;-71
2023/01/14 11:03:41;;;;;;;1.88;0.55;;;10.10;99.90;;;;;;5111994;28;20038;-72
2023/01/14 11:06:14;;;;;;;2.78;0.57;;;10.10;99.90;;;;;;5092616;28;20020;-72
2023/01/14 11:08:53;;;;;;;1.50;0.50;;;10.10;99.90;;;;;;5112726;28;20023;-71
2023/01/14 11:11:25;;;;;;;1.20;0.43;;;10.10;99.90;;;;;;5093170;28;20052;-72
2023/01/14 11:13:55;;;;;;;1.42;0.40;;;10.20;99.90;;;;;;5112400;28;20023;-71
2023/01/14 11:16:27;;;;;;;1.83;0.43;;;10.20;99.90;;;;;;5111115;28;20092;-71
2023/01/14 11:19:01;;;;;;;3.92;1.33;;;10.20;99.90;;;;;;5104814;28;20094;-71
2023/01/14 11:21:40;;;;;;;2.05;0.70;;;10.20;99.90;;;;;;5108652;28;20031;-71
2023/01/14 11:24:23;;;;;;;3.15;0.80;;;10.20;99.90;;;;;;5096348;28;20449;-72
2023/01/14 11:26:49;;;;;;;3.35;0.60;;;10.20;99.90;;;;;;5093512;28;20034;-71
2023/01/14 11:29:27;;;;;;;4.10;1.02;;;10.20;99.90;;;;;;5092880;28;20028;-71
2023/01/14 11:31:56;;;;;;;2.28;1.00;;;10.20;99.90;;;;;;5111885;28;20214;-71
2023/01/14 11:34:33;;;;;;;2.75;0.80;;;10.20;99.90;;;;;;5111003;28;20019;-72
2023/01/14 11:37:10;;;;;;;2.10;0.50;;;10.20;99.90;;;;;;5111700;28;20089;-72
2023/01/14 11:39:38;;;;;;;3.80;0.80;;;10.20;99.90;;;;;;5093667;28;20381;-71
2023/01/14 11:42:40;;;;;;;1.30;0.60;;;10.20;99.90;;;;;;5093326;28;20117;-72
2023/01/14 11:45:11;;;;;;;1.83;0.55;;;10.20;99.90;;;;;;5042557;28;20025;-72
2023/01/14 11:47:52;;;;;;;2.33;0.80;;;10.20;99.90;;;;;;5085789;28;20147;-71
2023/01/14 11:50:25;;;;;;;2.47;0.60;;;10.30;99.90;;;;;;5098995;28;20103;-72
2023/01/14 11:52:58;;;;;;;3.03;0.50;;;10.30;99.90;;;;;;5093584;28;20034;-72
2023/01/14 11:55:26;;;;;;;1.52;0.70;;;10.20;99.90;;;;;;5092910;28;20027;-71
2023/01/14 11:57:52;;;;;;;2.10;0.47;;;10.20;99.90;;;;;;5110107;28;20035;-72
2023/01/14 12:00:20;;;;;;;2.40;0.50;;;10.30;99.90;;;;;;5087486;28;20028;-72
2023/01/14 12:02:54;;;;;;;2.30;0.30;;;10.30;99.90;;;;;;5097356;28;20084;-72
2023/01/14 12:05:21;;;;;;;2.97;0.60;;;10.30;99.90;;;;;;5115079;28;20046;-72
2023/01/14 12:07:58;;;;;;;0.88;0.40;;;10.30;99.90;;;;;;5097032;28;20023;-72
2023/01/14 12:10:32;;;;;;;2.28;0.50;;;10.30;99.90;;;;;;5096376;28;20027;-72
2023/01/14 12:18:50;;;;;;;1.33;0.40;;;10.30;99.90;;;;;;5109580;28;20066;-72
2023/01/14 12:21:25;;;;;;;3.38;0.40;;;10.30;99.90;;;;;;5091155;28;20020;-72
2023/01/14 12:24:06;;;;;;;1.83;0.35;;;10.30;99.90;;;;;;5115434;28;20024;-72
2023/01/14 12:26:37;;;;;;;0.70;0.35;;;10.40;99.90;;;;;;5096411;28;20116;-72
2023/01/14 12:29:06;;;;;;;0.88;0.30;;;10.40;99.90;;;;;;5094519;28;20030;-74
2023/01/14 12:31:41;;;;;;;1.40;0.35;;;10.40;99.90;;;;;;5096175;28;20032;-72
2023/01/14 12:34:33;;;;;;;1.58;0.40;;;10.50;99.90;;;;;;5114548;28;20024;-72
2023/01/14 12:37:10;;;;;;;1.20;0.32;;;10.60;99.90;;;;;;5095439;28;20464;-72
2023/01/14 12:45:54;;;;;;;2.00;0.40;;;10.60;99.90;;;;;;5031485;28;20528;-72
2023/01/14 12:48:23;;;;;;;2.50;0.90;;;10.70;99.90;;;;;;5030098;28;20454;-72
2023/01/14 12:50:59;;;;;;;1.67;0.50;;;10.70;99.90;;;;;;5060363;28;20387;-72
2023/01/14 12:53:30;;;;;;;2.90;0.60;;;10.70;99.90;;;;;;5113944;28;20100;-72
2023/01/14 12:55:59;;;;;;;0.95;0.43;;;10.80;99.90;;;;;;5096122;28;20042;-72
2023/01/14 12:58:29;;;;;;;1.00;0.30;;;10.80;99.90;;;;;;5111308;28;20104;-72
2023/01/14 13:00:59;;;;;;;1.10;0.30;;;10.80;99.90;;;;;;5114264;28;20125;-72
2023/01/14 13:03:36;;;;;;;2.30;0.20;;;10.70;99.90;;;;;;5095100;28;20041;-71
2023/01/14 13:06:12;;;;;;;1.55;0.40;;;10.80;99.90;;;;;;5114151;28;20090;-73
2023/01/14 13:08:38;;;;;;;1.50;0.22;;;10.70;99.90;;;;;;5095560;28;20073;-71
2023/01/14 13:11:11;;;;;;;0.95;0.40;;;10.70;99.90;;;;;;5095389;28;20019;-72
2023/01/14 13:13:41;;;;;;;1.90;0.60;;;10.70;99.90;;;;;;5093490;28;20065;-72
2023/01/14 13:16:28;;;;;;;0.75;0.50;;;10.70;99.90;;;;;;5095025;28;20465;-72
2023/01/14 13:18:59;;;;;;;2.97;0.55;;;10.80;99.90;;;;;;5092081;28;20048;-72
2023/01/14 13:21:49;;;;;;;1.25;0.47;;;10.80;99.90;;;;;;5095240;28;20502;-72
2023/01/14 13:24:34;;;;;;;3.17;0.40;;;10.80;99.90;;;;;;5089808;28;20020;-72
2023/01/14 13:27:02;;;;;;;1.27;0.52;;;10.80;99.90;;;;;;5093791;28;20465;-72
2023/01/14 13:29:30;;;;;;;0.95;0.38;;;10.80;99.90;;;;;;5094703;28;20446;-72
2023/01/14 13:31:56;;;;;;;1.25;0.50;;;10.90;99.90;;;;;;5095313;28;20032;-71
2023/01/14 13:34:22;;;;;;;0.82;0.40;;;10.80;99.90;;;;;;5094720;28;20106;-71
2023/01/14 13:37:00;;;;;;;1.30;0.43;;;10.80;99.90;;;;;;5095597;28;20120;-71
2023/01/14 13:39:27;;;;;;;5.07;0.60;;;10.80;99.90;;;;;;5113033;28;20461;-71
2023/01/14 13:41:57;;;;;;;0.73;0.30;;;10.90;99.90;;;;;;5113465;28;20038;-71
2023/01/14 13:44:30;;;;;;;1.38;0.60;;;10.90;99.90;;;;;;5094480;28;20107;-71
2023/01/14 13:47:19;;;;;;;1.02;0.60;;;10.90;99.90;;;;;;5113679;28;20024;-71
2023/01/14 13:49:57;;;;;;;3.65;0.45;;;10.90;99.90;;;;;;5101211;28;20484;-71